Time;durP1;ratioP1;P1;durP2;ratioP2;P2;SDS_P1;SDS_P2;PMS_P1;PMS_P2;Temp;Humidity;BMP_temperature;BMP_pressure;BME280_temperature;BME280_humidity;BME280_pressure;Samples;Min_cycle;Max_cycle;Signal;HPM_P1;HPM_P2
2022/04/22 00:00:39;;;;;;;2.00;0.90;;;;;;;26.95;25.07;95407.84;4925126;28;20409;-35
2022/04/22 00:03:05;;;;;;;2.40;0.88;;;;;;;26.95;25.10;95402.59;4921780;28;20050;-38
2022/04/22 00:05:31;;;;;;;1.50;1.00;;;;;;;26.95;25.10;95402.59;4922701;28;20028;-33
2022/04/22 00:07:56;;;;;;;1.98;0.90;;;;;;;26.95;25.10;95402.59;4918135;28;22981;-31
2022/04/22 00:10:22;;;;;;;1.63;0.90;;;;;;;26.95;25.10;95402.59;4898593;28;20035;-32
2022/04/22 00:12:47;;;;;;;1.90;0.80;;;;;;;26.95;25.09;95399.97;4901780;28;20031;-33
2022/04/22 00:15:13;;;;;;;2.55;0.98;;;;;;;26.95;25.09;95399.97;4904794;28;22138;-32
2022/04/22 00:17:39;;;;;;;1.90;0.80;;;;;;;26.96;24.98;95399.03;4907534;28;20035;-35
2022/04/22 00:20:05;;;;;;;5.07;1.00;;;;;;;26.96;24.98;95399.03;4902900;28;21074;-39
2022/04/22 00:22:31;;;;;;;1.88;1.10;;;;;;;26.94;25.11;95393.91;4907098;28;20050;-33
2022/04/22 00:24:56;;;;;;;1.17;0.80;;;;;;;26.94;25.11;95393.91;4904651;28;20071;-32
2022/04/22 00:27:22;;;;;;;2.88;1.08;;;;;;;26.94;25.11;95393.91;4921168;28;20055;-31
2022/04/22 00:29:47;;;;;;;3.63;1.00;;;;;;;26.96;24.98;95386.72;4926258;28;20031;-30
2022/04/22 00:32:12;;;;;;;2.90;0.98;;;;;;;26.95;24.96;95386.84;4924233;28;20046;-32
2022/04/22 00:34:38;;;;;;;1.25;0.80;;;;;;;26.95;24.96;95386.84;4925305;28;20039;-31
2022/04/22 00:37:04;;;;;;;1.85;0.85;;;;;;;26.96;25.08;95388.53;4924360;28;20229;-31
2022/04/22 00:39:29;;;;;;;1.98;0.93;;;;;;;26.95;25.08;95381.56;4924931;28;20036;-32
2022/04/22 00:41:55;;;;;;;1.50;0.70;;;;;;;26.95;25.08;95381.56;4923608;28;20600;-33
2022/04/22 00:44:21;;;;;;;1.48;0.70;;;;;;;26.95;25.08;95381.56;4920270;28;20046;-30
2022/04/22 00:46:46;;;;;;;1.20;0.63;;;;;;;26.95;25.16;95386.84;4921786;28;20023;-33
2022/04/22 00:49:11;;;;;;;2.97;0.98;;;;;;;26.95;25.16;95386.84;4923857;28;20028;-34
2022/04/22 00:51:37;;;;;;;1.83;0.73;;;;;;;26.95;25.17;95381.56;4921433;28;21339;-32
2022/04/22 00:54:03;;;;;;;1.77;0.70;;;;;;;26.95;25.17;95381.56;4940662;28;20618;-35
2022/04/22 00:56:29;;;;;;;1.65;0.93;;;;;;;26.95;25.17;95381.56;4925035;28;20642;-31
2022/04/22 00:58:56;;;;;;;1.95;0.70;;;;;;;26.95;25.17;95381.56;4927426;28;20047;-32
2022/04/22 01:01:22;;;;;;;2.28;0.70;;;;;;;26.95;25.17;95381.56;4919726;28;20940;-37
2022/04/22 01:12:06;;;;;;;1.80;0.95;;;;;;;26.95;25.17;95381.56;4919470;28;20122;-31
2022/04/22 01:14:32;;;;;;;5.10;1.00;;;;;;;26.93;25.17;95351.94;4923031;28;20044;-34
2022/04/22 01:16:57;;;;;;;2.20;0.88;;;;;;;26.92;25.25;95351.09;4938412;28;20067;-33
2022/04/22 01:19:22;;;;;;;0.98;0.70;;;;;;;26.92;25.25;95351.09;4922537;28;20031;-33
2022/04/22 01:21:48;;;;;;;1.70;0.80;;;;;;;26.92;25.25;95351.09;4932069;28;20484;-32
2022/04/22 01:24:13;;;;;;;1.52;0.90;;;;;;;26.92;25.33;95345.00;4922905;28;20087;-32
2022/04/22 01:26:39;;;;;;;2.83;1.08;;;;;;;26.92;25.33;95345.00;4888808;28;20042;-32
2022/04/22 01:29:04;;;;;;;1.45;0.70;;;;;;;26.92;25.33;95345.00;4882494;28;20039;-31
2022/04/22 01:31:30;;;;;;;1.65;0.90;;;;;;;26.92;25.33;95345.00;4898100;28;20031;-38
2022/04/22 01:33:55;;;;;;;1.48;0.65;;;;;;;26.92;25.33;95345.00;4882031;28;20171;-31
2022/04/22 01:36:21;;;;;;;1.13;0.80;;;;;;;26.92;25.33;95345.00;4882946;28;20051;-32
2022/04/22 01:38:47;;;;;;;3.85;0.70;;;;;;;26.92;25.33;95345.00;4883354;28;20035;-31
2022/04/22 01:41:12;;;;;;;1.25;0.70;;;;;;;26.92;25.33;95345.00;4879123;28;20035;-37
2022/04/22 01:43:38;;;;;;;0.73;0.63;;;;;;;26.92;25.33;95345.00;4885680;28;20395;-32
2022/04/22 01:46:04;;;;;;;1.13;0.70;;;;;;;26.92;25.33;95345.00;4884344;28;20039;-33
2022/04/22 01:48:30;;;;;;;1.20;0.75;;;;;;;26.92;25.33;95345.00;4895689;28;20094;-35
2022/04/22 01:50:56;;;;;;;2.53;0.80;;;;;;;26.92;25.33;95345.00;4882589;28;20433;-37
2022/04/22 01:53:21;;;;;;;3.58;0.80;;;;;;;26.92;25.33;95345.00;4884309;28;20070;-39
2022/04/22 01:55:47;;;;;;;1.63;0.80;;;;;;;26.92;25.33;95345.00;4879546;28;20058;-36
2022/04/22 01:58:12;;;;;;;0.90;0.60;;;;;;;26.92;25.33;95345.00;4882614;28;20391;-32
2022/04/22 02:00:38;;;;;;;0.82;0.60;;;;;;;26.90;25.20;95294.34;4884592;28;20102;-34
2022/04/22 02:03:03;;;;;;;0.80;0.63;;;;;;;26.90;25.20;95294.34;4881622;28;20103;-31
2022/04/22 02:05:28;;;;;;;0.98;0.70;;;;;;;26.90;25.20;95294.34;4881995;28;20130;-38
2022/04/22 02:07:54;;;;;;;2.03;0.80;;;;;;;26.90;25.20;95294.34;4881276;28;22747;-35
2022/04/22 02:10:19;;;;;;;0.93;0.68;;;;;;;26.90;25.20;95294.34;4885362;28;20146;-34
2022/04/22 02:12:45;;;;;;;0.93;0.60;;;;;;;26.90;25.20;95294.34;4880486;28;20509;-34
2022/04/22 02:15:14;;;;;;;1.23;0.80;;;;;;;26.90;25.20;95294.34;4881623;28;20206;-37
2022/04/22 02:17:41;;;;;;;2.38;0.80;;;;;;;26.88;25.21;95290.06;4880697;28;20122;-37
2022/04/22 02:20:07;;;;;;;1.05;0.75;;;;;;;26.88;25.21;95290.06;4881830;28;20055;-37
2022/04/22 02:22:34;;;;;;;1.00;0.70;;;;;;;26.88;25.21;95287.41;4883678;28;20175;-35
2022/04/22 02:25:00;;;;;;;1.30;0.85;;;;;;;26.88;25.20;95282.16;4889502;28;20038;-33
2022/04/22 02:30:10;;;;;;;1.33;0.80;;;;;;;26.90;25.27;95274.16;4921988;28;20046;-32
2022/04/22 02:32:36;;;;;;;3.33;0.80;;;;;;;26.90;25.23;95273.31;4922576;28;20058;-31
2022/04/22 02:35:02;;;;;;;4.00;0.68;;;;;;;26.90;25.23;95273.31;4918472;28;20648;-31
2022/04/22 02:37:27;;;;;;;1.73;0.75;;;;;;;26.90;25.23;95273.31;4923163;28;20675;-31
2022/04/22 02:39:53;;;;;;;1.70;0.60;;;;;;;26.90;25.23;95273.31;4927204;28;20031;-37
2022/04/22 02:47:46;;;;;;;1.38;0.77;;;;;;;26.87;25.20;95270.00;4921494;28;20119;-31
2022/04/22 02:50:11;;;;;;;1.65;0.90;;;;;;;26.87;25.20;95270.00;4921795;28;20061;-38
2022/04/22 02:52:37;;;;;;;0.80;0.60;;;;;;;26.84;25.23;95254.47;4921749;28;20042;-34
2022/04/22 02:55:02;;;;;;;0.50;0.50;;;;;;;26.84;25.23;95254.47;4926126;28;20490;-34
2022/04/22 02:57:28;;;;;;;0.40;0.40;;;;;;;26.84;25.23;95254.47;4920461;28;20060;-34
2022/04/22 02:59:53;;;;;;;0.75;0.60;;;;;;;26.84;25.23;95254.47;4935018;28;20087;-30
2022/04/22 03:02:19;;;;;;;1.65;0.73;;;;;;;26.84;25.25;95243.09;4921296;28;20039;-33
2022/04/22 03:04:44;;;;;;;0.63;0.47;;;;;;;-148.56;25.25;95243.09;4920893;28;20040;-31
2022/04/22 03:07:09;;;;;;;1.95;0.90;;;;;;;26.84;25.25;95243.09;4933843;28;20034;-31
2022/04/22 03:09:35;;;;;;;0.98;0.80;;;;;;;26.84;25.25;95243.09;4923330;28;20036;-30
2022/04/22 03:12:00;;;;;;;2.83;0.70;;;;;;;26.85;25.25;95250.88;4927647;28;20094;-31
2022/04/22 03:14:26;;;;;;;3.17;0.73;;;;;;;26.85;25.25;95250.88;4929012;28;20027;-31
2022/04/22 03:16:52;;;;;;;1.25;0.70;;;;;;;26.85;25.25;95250.88;4929915;28;20102;-31
2022/04/22 03:19:17;;;;;;;0.80;0.50;;;;;;;26.85;25.25;95250.88;4926016;28;20164;-30
2022/04/22 03:21:42;;;;;;;1.10;0.60;;;;;;;26.85;25.25;95250.88;4930517;28;20493;-31
2022/04/22 03:24:09;;;;;;;0.85;0.75;;;;;;;26.85;25.25;95250.88;4932558;28;20043;-29
2022/04/22 03:26:35;;;;;;;1.55;0.80;;;;;;;26.85;25.25;95250.88;4932601;28;20034;-31
2022/04/22 03:29:00;;;;;;;1.90;0.70;;;;;;;26.85;25.25;95250.88;4931722;28;20713;-30
2022/04/22 03:31:26;;;;;;;0.52;0.50;;;;;;;26.85;25.25;95250.88;4931482;28;20091;-30
2022/04/22 03:33:51;;;;;;;1.05;0.70;;;;;;;26.85;25.25;95250.88;4929863;28;20035;-32
2022/04/22 03:36:17;;;;;;;1.48;0.80;;;;;;;26.85;25.25;95250.88;4930515;28;20043;-34
2022/04/22 03:38:43;;;;;;;1.00;0.80;;;;;;;26.85;25.25;95250.88;4930138;28;20082;-32
2022/04/22 03:41:08;;;;;;;1.95;0.68;;;;;;;26.85;25.25;95250.88;4927805;28;20034;-31
2022/04/22 03:43:34;;;;;;;1.55;0.60;;;;;;;26.85;25.25;95250.88;4924639;28;20342;-32
2022/04/22 03:45:59;;;;;;;0.75;0.50;;;;;;;26.85;25.25;95250.88;4923723;28;20057;-31
2022/04/22 03:48:25;;;;;;;1.23;0.90;;;;;;;26.83;25.14;95234.41;4920456;28;20031;-32
2022/04/22 03:50:50;;;;;;;0.60;0.60;;;;;;;26.83;25.34;95236.19;4920413;28;20859;-31
2022/04/22 03:53:16;;;;;;;0.73;0.70;;;;;;;26.83;25.34;95236.19;4924831;28;20043;-32
2022/04/22 03:55:43;;;;;;;1.48;0.70;;;;;;;26.82;25.38;95222.22;4925870;28;20027;-33
2022/04/22 03:58:11;;;;;;;0.68;0.52;;;;;;;26.82;25.38;95222.22;4925890;28;20442;-33
2022/04/22 04:00:39;;;;;;;2.05;0.70;;;;;;;26.82;25.38;95222.22;4926381;28;20097;-33
2022/04/22 04:03:06;;;;;;;3.63;0.80;;;;;;;26.82;25.38;95222.22;4923557;28;20035;-36
2022/04/22 04:05:33;;;;;;;1.17;0.60;;;;;;;26.82;25.38;95222.22;4924284;28;20032;-32
2022/04/22 04:07:58;;;;;;;0.50;0.50;;;;;;;26.82;25.43;95229.28;4923518;28;20114;-31
2022/04/22 04:15:57;;;;;;;0.50;0.50;;;;;;;26.80;25.36;95232.00;4925662;28;20035;-31
2022/04/22 04:18:23;;;;;;;1.10;0.63;;;;;;;26.80;25.36;95232.00;4922338;28;20795;-33
2022/04/22 04:23:32;;;;;;;2.92;0.60;;;;;;;26.80;25.36;95232.00;4930355;28;20034;-31
2022/04/22 04:25:59;;;;;;;0.75;0.65;;;;;;;26.77;25.28;95227.00;4928786;28;20028;-31
2022/04/22 04:28:27;;;;;;;1.05;0.73;;;;;;;26.79;25.42;95230.34;4931591;28;20024;-34
2022/04/22 04:30:52;;;;;;;1.67;0.80;;;;;;;26.79;25.42;95230.34;4931224;28;20049;-32
2022/04/22 04:33:18;;;;;;;1.00;0.60;;;;;;;26.79;25.42;95230.34;4925372;28;20039;-30
2022/04/22 04:35:46;;;;;;;0.85;0.55;;;;;;;26.78;25.26;95244.47;4931861;28;20044;-32
2022/04/22 04:38:12;;;;;;;1.20;0.77;;;;;;;26.78;25.26;95244.47;4929176;28;20118;-36
2022/04/22 04:40:38;;;;;;;0.80;0.60;;;;;;;26.78;25.26;95244.47;4929118;28;20063;-31
2022/04/22 04:43:05;;;;;;;1.00;0.60;;;;;;;26.78;25.26;95244.47;4932792;28;20058;-31
2022/04/22 04:45:31;;;;;;;0.60;0.60;;;;;;;26.78;25.26;95244.47;4928635;28;20032;-32
2022/04/22 04:47:57;;;;;;;0.70;0.70;;;;;;;26.78;25.26;95244.47;4929275;28;20039;-30
2022/04/22 04:50:22;;;;;;;2.63;0.70;;;;;;;26.78;25.27;95233.94;4929535;28;20027;-31
2022/04/22 04:52:47;;;;;;;1.00;0.90;;;;;;;26.78;25.27;95233.94;4929989;28;20059;-30
2022/04/22 04:55:16;;;;;;;0.93;0.63;;;;;;;26.78;25.27;95233.94;4929186;28;20042;-36
2022/04/22 04:57:42;;;;;;;0.93;0.77;;;;;;;26.78;25.27;95233.94;4933503;28;20035;-34
2022/04/22 05:00:09;;;;;;;1.85;0.80;;;;;;;26.78;25.27;95233.94;4929619;28;20031;-30
2022/04/22 05:02:35;;;;;;;1.55;0.80;;;;;;;26.78;25.27;95233.94;4929432;28;20071;-32
2022/04/22 05:05:00;;;;;;;1.13;0.60;;;;;;;26.78;25.27;95233.94;4931778;28;20661;-34
2022/04/22 05:07:26;;;;;;;1.30;0.60;;;;;;;26.78;25.27;95233.94;4932721;28;20608;-31
2022/04/22 05:09:51;;;;;;;1.13;0.60;;;;;;;26.78;25.27;95233.94;4929581;28;20032;-29
2022/04/22 05:12:17;;;;;;;1.25;0.90;;;;;;;26.78;25.27;95233.94;4930500;28;20035;-32
2022/04/22 05:14:44;;;;;;;1.10;0.70;;;;;;;26.78;25.27;95233.94;4930434;28;20039;-33
2022/04/22 05:17:09;;;;;;;0.60;0.60;;;;;;;26.78;25.27;95233.94;4929429;28;20336;-33
2022/04/22 05:19:35;;;;;;;0.82;0.60;;;;;;;26.78;25.27;95233.94;4928392;28;20050;-37
2022/04/22 05:22:00;;;;;;;0.88;0.70;;;;;;;26.78;25.27;95233.94;4930950;28;20027;-31
2022/04/22 05:24:25;;;;;;;1.05;0.80;;;;;;;26.78;25.27;95233.94;4923738;28;21381;-34
2022/04/22 05:26:51;;;;;;;0.47;0.47;;;;;;;26.78;25.27;95233.94;4926315;28;20086;-31
2022/04/22 05:34:44;;;;;;;1.88;0.80;;;;;;;26.78;25.27;95233.94;4928558;28;20050;-31
2022/04/22 05:37:10;;;;;;;1.05;0.70;;;;;;;26.78;25.27;95233.94;4924912;28;20023;-46
2022/04/22 05:39:35;;;;;;;1.00;0.52;;;;;;;26.73;25.22;95238.72;4917302;28;20091;-32
2022/04/22 05:42:01;;;;;;;1.08;0.75;;;;;;;26.73;25.22;95238.72;4922493;28;20028;-31
2022/04/22 05:44:27;;;;;;;1.20;0.50;;;;;;;26.73;25.22;95238.72;4923159;28;20536;-38
2022/04/22 05:46:53;;;;;;;1.02;0.60;;;;;;;26.73;25.22;95238.72;4923519;28;20036;-31
2022/04/22 05:49:18;;;;;;;0.82;0.60;;;;;;;26.73;25.22;95238.72;4919986;28;20095;-30
2022/04/22 05:51:44;;;;;;;0.70;0.70;;;;;;;26.73;25.22;95238.72;4919989;28;20948;-36
2022/04/22 05:54:09;;;;;;;1.85;0.77;;;;;;;26.72;25.33;95229.19;4924165;28;20062;-32
2022/04/22 05:56:35;;;;;;;0.90;0.68;;;;;;;26.72;25.33;95229.19;4924554;28;20110;-31
2022/04/22 05:59:02;;;;;;;1.17;0.60;;;;;;;26.72;25.33;95229.19;4919999;28;20050;-32
2022/04/22 06:01:27;;;;;;;0.70;0.68;;;;;;;26.72;25.33;95229.19;4920595;28;20507;-30
2022/04/22 06:03:52;;;;;;;1.05;0.80;;;;;;;26.72;25.33;95229.19;4925452;28;20044;-30
2022/04/22 06:06:18;;;;;;;1.45;0.63;;;;;;;26.72;25.33;95229.19;4923302;28;20772;-33
2022/04/22 06:11:27;;;;;;;0.80;0.70;;;;;;;26.72;25.33;95229.19;4922689;28;20038;-35
2022/04/22 06:13:53;;;;;;;1.20;0.60;;;;;;;26.72;25.33;95229.19;4923453;28;20035;-29
2022/04/22 06:16:18;;;;;;;0.85;0.68;;;;;;;26.72;25.33;95229.19;4920723;28;21264;-32
2022/04/22 06:18:43;;;;;;;3.95;0.80;;;;;;;26.72;25.33;95229.19;4915040;28;20032;-31
2022/04/22 06:21:09;;;;;;;4.20;1.80;;;;;;;26.72;25.33;95229.19;4923856;28;20062;-35
2022/04/22 06:23:34;;;;;;;2.15;1.00;;;;;;;26.71;25.45;95212.59;4922141;28;20450;-33
2022/04/22 06:26:00;;;;;;;6.35;0.80;;;;;;;26.71;25.45;95212.59;4923155;28;20031;-37
2022/04/22 06:28:25;;;;;;;0.88;0.77;;;;;;;26.71;25.45;95212.59;4925478;28;20094;-31
2022/04/22 06:30:51;;;;;;;2.08;0.80;;;;;;;26.73;25.25;95215.91;4921998;28;20027;-36
2022/04/22 06:33:18;;;;;;;2.75;0.98;;;;;;;26.73;25.25;95215.91;4920279;28;20027;-32
2022/04/22 06:35:44;;;;;;;0.75;0.75;;;;;;;26.73;25.59;95220.31;4919658;28;20027;-38
2022/04/22 06:38:09;;;;;;;4.05;1.30;;;;;;;26.73;25.59;95220.31;4922488;28;20053;-42
2022/04/22 06:46:03;;;;;;;10.35;2.13;;;;;;;26.73;25.59;95220.31;4912198;28;20055;-31
2022/04/22 06:48:30;;;;;;;8.73;1.50;;;;;;;26.73;25.59;95220.31;4919747;28;20039;-33
2022/04/22 06:50:56;;;;;;;9.20;4.20;;;;;;;26.73;25.59;95220.31;4916863;28;20027;-36
2022/04/22 06:53:22;;;;;;;15.10;5.97;;;;;;;26.73;25.59;95220.31;4915915;28;20030;-32
2022/04/22 06:55:48;;;;;;;12.40;6.07;;;;;;;26.73;25.59;95220.31;4921254;28;20038;-33
2022/04/22 06:58:14;;;;;;;12.23;6.30;;;;;;;26.73;25.59;95220.31;4917179;28;20508;-30
2022/04/22 07:00:40;;;;;;;10.63;6.30;;;;;;;26.73;25.59;95220.31;4922459;28;20062;-31
2022/04/22 07:03:07;;;;;;;10.70;6.13;;;;;;;26.73;25.59;95220.31;4923209;28;20031;-38
2022/04/22 07:05:33;;;;;;;11.80;6.60;;;;;;;26.73;25.59;95220.31;4923108;28;20038;-31
2022/04/22 07:08:00;;;;;;;11.43;6.82;;;;;;;26.73;25.59;95220.31;4922524;28;20074;-31
2022/04/22 07:10:26;;;;;;;9.95;6.43;;;;;;;26.73;25.59;95220.31;4921703;28;20024;-31
2022/04/22 07:12:51;;;;;;;12.30;6.65;;;;;;;26.73;25.59;95220.31;4925547;28;20066;-33
2022/04/22 07:15:17;;;;;;;12.02;5.93;;;;;;;26.73;25.59;95220.31;4923535;28;20470;-30
2022/04/22 07:17:42;;;;;;;11.23;6.75;;;;;;;26.73;25.59;95220.31;4914948;28;20421;-32
2022/04/22 07:20:09;;;;;;;11.98;6.88;;;;;;;26.73;25.59;95220.31;4923559;28;20036;-32
2022/04/22 07:22:38;;;;;;;13.05;6.20;;;;;;;26.73;25.59;95220.31;4930953;28;20023;-32
2022/04/22 07:25:08;;;;;;;8.23;5.80;;;;;;;26.73;25.59;95220.31;4924861;28;20035;-31
2022/04/22 07:27:34;;;;;;;9.43;6.43;;;;;;;26.73;25.59;95220.31;4928174;28;20046;-31
2022/04/22 07:30:00;;;;;;;7.38;6.00;;;;;;;26.73;25.59;95220.31;4927718;28;20114;-35
2022/04/22 07:32:26;;;;;;;10.13;6.00;;;;;;;26.73;25.59;95220.31;4929155;28;20082;-32
2022/04/22 07:34:53;;;;;;;8.90;6.30;;;;;;;26.73;25.59;95220.31;4929554;28;20026;-32
2022/04/22 07:37:18;;;;;;;9.82;6.50;;;;;;;26.73;25.59;95220.31;4919961;28;20450;-34
2022/04/22 07:39:44;;;;;;;8.07;6.20;;;;;;;26.73;25.59;95220.31;4924641;28;20027;-37
2022/04/22 07:42:18;;;;;;;10.57;5.50;;;;;;;26.73;25.59;95220.31;4925072;28;20106;-32
2022/04/22 07:47:35;;;;;;;7.88;5.80;;;;;;;26.73;25.59;95220.31;4927971;28;20038;-30
2022/04/22 07:50:02;;;;;;;9.93;5.80;;;;;;;26.73;25.59;95220.31;4928113;28;20196;-37
2022/04/22 07:52:28;;;;;;;10.10;6.53;;;;;;;26.73;25.59;95220.31;4924213;28;20039;-34
2022/04/22 07:54:54;;;;;;;8.05;6.35;;;;;;;26.73;25.59;95220.31;4920125;28;20050;-34
2022/04/22 07:57:21;;;;;;;10.07;6.13;;;;;;;26.73;25.59;95220.31;4922912;28;20174;-34
2022/04/22 07:59:46;;;;;;;13.10;6.47;;;;;;;26.73;25.59;95220.31;4928239;28;20130;-32
2022/04/22 08:02:12;;;;;;;7.65;6.10;;;;;;;26.73;25.59;95220.31;4923906;28;20112;-32
2022/04/22 08:04:37;;;;;;;7.35;5.88;;;;;;;26.73;25.59;95220.31;4935451;28;20032;-34
2022/04/22 08:07:05;;;;;;;7.93;6.18;;;;;;;26.73;25.59;95220.31;4924822;28;20034;-32
2022/04/22 08:09:30;;;;;;;8.20;6.60;;;;;;;26.73;25.59;95220.31;4931937;28;20663;-33
2022/04/22 08:11:56;;;;;;;10.30;6.15;;;;;;;26.73;25.59;95220.31;4933940;28;20032;-31
2022/04/22 08:14:22;;;;;;;8.18;6.20;;;;;;;26.73;25.59;95220.31;4929792;28;20047;-32
2022/04/22 08:16:47;;;;;;;7.40;6.55;;;;;;;26.34;24.89;95189.31;4929322;28;20183;-30
2022/04/22 08:19:13;;;;;;;8.25;6.10;;;;;;;26.34;24.89;95189.31;4930106;28;20059;-32
2022/04/22 08:21:38;;;;;;;10.20;6.28;;;;;;;26.34;24.89;95189.31;4932503;28;20099;-33
2022/04/22 08:24:04;;;;;;;10.77;6.45;;;;;;;26.34;24.89;95189.31;4928564;28;20035;-36
2022/04/22 08:26:31;;;;;;;8.90;5.88;;;;;;;26.34;24.89;95189.31;4927275;28;20530;-31
2022/04/22 08:28:57;;;;;;;10.52;7.97;;;;;;;26.34;24.89;95189.31;4935625;28;20093;-32
2022/04/22 08:31:23;;;;;;;27.20;10.85;;;;;;;26.34;24.89;95189.31;4919433;28;21167;-32
2022/04/22 08:33:49;;;;;;;24.80;12.18;;;;;;;26.34;24.89;95189.31;4925411;28;20043;-30
2022/04/22 08:36:15;;;;;;;15.60;11.90;;;;;;;26.34;24.89;95189.31;4930240;28;20781;-32
2022/04/22 08:38:40;;;;;;;16.90;12.18;;;;;;;26.34;24.89;95189.31;4929397;28;20040;-34
2022/04/22 08:41:07;;;;;;;18.75;11.57;;;;;;;26.34;24.89;95189.31;4929595;28;20046;-33
2022/04/22 08:43:33;;;;;;;12.60;10.02;;;;;;;26.34;24.89;95189.31;4933689;28;20027;-31
2022/04/22 08:45:58;;;;;;;10.48;7.88;;;;;;;26.34;24.89;95189.31;4930216;28;20039;-30
2022/04/22 08:51:08;;;;;;;11.32;5.40;;;;;;;25.70;24.92;95153.13;4927608;28;20046;-31
2022/04/22 08:53:33;;;;;;;8.05;5.07;;;;;;;25.70;24.92;95153.13;4930819;28;20110;-31
2022/04/22 08:56:02;;;;;;;6.55;4.10;;;;;;;25.81;24.81;95149.66;4938927;28;20031;-31
2022/04/22 08:58:27;;;;;;;6.88;4.20;;;;;;;25.81;24.81;95149.66;4936686;28;20042;-33
2022/04/22 09:00:54;;;;;;;5.80;3.80;;;;;;;25.81;24.81;95149.66;4919402;28;20040;-29
2022/04/22 09:03:20;;;;;;;10.13;3.80;;;;;;;25.90;24.88;95147.28;4936814;28;20074;-32
2022/04/22 09:05:45;;;;;;;5.30;3.55;;;;;;;25.90;24.88;95147.28;4921968;28;20138;-35
2022/04/22 09:08:10;;;;;;;5.60;3.50;;;;;;;26.08;24.78;95147.56;4932005;28;20027;-30
2022/04/22 09:10:38;;;;;;;17.02;3.92;;;;;;;26.08;24.78;95147.56;4939661;28;20030;-34
2022/04/22 09:13:09;;;;;;;16.55;3.90;;;;;;;26.10;24.87;95135.97;4917525;28;20031;-36
2022/04/22 09:15:35;;;;;;;13.90;6.80;;;;;;;26.21;24.65;95134.31;4931781;28;20729;-33
2022/04/22 09:18:11;;;;;;;21.20;6.80;;;;;;;26.21;24.65;95134.31;4922799;28;20035;-30
2022/04/22 09:20:36;;;;;;;20.35;5.05;;;;;;;26.21;24.65;95134.31;4920398;28;20561;-31
2022/04/22 09:23:05;;;;;;;9.30;3.42;;;;;;;26.21;24.65;95134.31;4922649;28;20043;-32
2022/04/22 09:25:31;;;;;;;12.95;3.30;;;;;;;-148.56;24.65;95134.31;4920872;28;20035;-37
2022/04/22 09:28:09;;;;;;;13.13;4.13;;;;;;;26.21;24.65;95134.31;4924813;28;20032;-33
2022/04/22 09:30:35;;;;;;;9.68;3.70;;;;;;;26.21;24.65;95134.31;4926639;28;20039;-31
2022/04/22 09:33:00;;;;;;;6.38;3.33;;;;;;;26.21;24.65;95134.31;4922887;28;20071;-31
2022/04/22 09:35:28;;;;;;;11.95;5.85;;;;;;;26.49;24.79;95113.69;4929684;28;20035;-30
2022/04/22 09:43:24;;;;;;;29.95;6.47;;;;;;;26.50;24.65;95110.09;4923863;28;20051;-30
2022/04/22 09:45:56;;;;;;;21.80;4.90;;;;;;;26.50;24.65;95110.09;4924185;28;20035;-31
2022/04/22 09:48:22;;;;;;;17.52;5.55;;;;;;;26.51;24.65;95105.69;4925425;28;20031;-31
2022/04/22 09:50:54;;;;;;;16.63;4.40;;;;;;;26.51;24.65;95105.69;4922421;28;20032;-30
2022/04/22 09:53:33;;;;;;;13.82;3.97;;;;;;;26.51;24.65;95105.69;4925016;28;20102;-28
2022/04/22 09:56:05;;;;;;;14.38;5.07;;;;;;;26.51;24.65;95105.69;4922643;28;20042;-31
2022/04/22 09:58:30;;;;;;;23.75;6.07;;;;;;;26.51;24.70;95111.78;4922176;28;20027;-32
2022/04/22 10:01:06;;;;;;;17.20;5.00;;;;;;;26.52;24.73;95116.06;4924629;28;20042;-34
2022/04/22 10:03:36;;;;;;;15.82;4.95;;;;;;;26.52;24.73;95116.06;4925181;28;20032;-29
2022/04/22 10:06:01;;;;;;;13.38;5.07;;;;;;;26.52;24.73;95116.06;4919367;28;20466;-31
2022/04/22 10:08:30;;;;;;;10.13;4.93;;;;;;;26.52;24.96;95112.59;4922737;28;20078;-31
2022/04/22 10:11:00;;;;;;;11.63;3.10;;;;;;;26.52;24.96;95112.59;4935496;28;20569;-29
2022/04/22 10:13:34;;;;;;;11.60;4.30;;;;;;;26.53;25.19;95101.97;4927629;28;20102;-31
2022/04/22 10:16:00;;;;;;;17.02;4.07;;;;;;;26.53;25.19;95101.97;4939971;28;20035;-29
2022/04/22 10:18:26;;;;;;;14.10;4.72;;;;;;;26.53;25.19;95101.97;4927400;28;20730;-30
2022/04/22 10:20:52;;;;;;;10.02;5.28;;;;;;;26.53;25.19;95101.97;4922250;28;20031;-29
2022/04/22 10:23:17;;;;;;;9.95;5.28;;;;;;;26.53;25.19;95101.97;4926565;28;20031;-30
2022/04/22 10:25:42;;;;;;;7.78;5.30;;;;;;;26.53;25.19;95101.97;4932823;28;20038;-30
2022/04/22 10:28:09;;;;;;;13.60;6.13;;;;;;;26.53;25.19;95101.97;4923832;28;20032;-31
2022/04/22 10:30:35;;;;;;;12.90;6.60;;;;;;;26.53;25.19;95101.97;4922603;28;20035;-30
2022/04/22 10:33:01;;;;;;;11.63;6.40;;;;;;;26.53;25.19;95101.97;4927655;28;20118;-29
2022/04/22 10:35:26;;;;;;;15.60;7.10;;;;;;;26.53;25.19;95101.97;4916976;28;20078;-31
2022/04/22 10:37:52;;;;;;;10.02;6.30;;;;;;;26.53;25.19;95101.97;4922131;28;20031;-32
2022/04/22 10:40:25;;;;;;;7.57;6.07;;;;;;;26.53;25.19;95101.97;4924489;28;20122;-33
2022/04/22 10:42:51;;;;;;;12.23;6.47;;;;;;;26.53;25.19;95101.97;4930514;28;20058;-30
2022/04/22 10:48:19;;;;;;;9.48;6.15;;;;;;;26.53;25.19;95101.97;4931053;28;20041;-30
2022/04/22 10:50:59;;;;;;;27.02;6.93;;;;;;;26.53;25.19;95101.97;4932886;28;20035;-30
2022/04/22 10:53:28;;;;;;;19.83;5.95;;;;;;;26.53;25.19;95101.97;4918169;28;20054;-30
2022/04/22 10:56:26;;;;;;;13.63;6.13;;;;;;;26.53;25.19;95101.97;4927104;28;20035;-30
2022/04/22 10:59:16;;;;;;;12.45;5.63;;;;;;;26.53;25.19;95101.97;4916992;28;20096;-31
2022/04/22 11:01:42;;;;;;;8.73;5.95;;;;;;;26.53;25.19;95101.97;4929792;28;20027;-29
2022/04/22 11:04:24;;;;;;;7.72;5.93;;;;;;;26.53;25.19;95101.97;4925583;28;20948;-30
2022/04/22 11:06:49;;;;;;;;;;;;;;;26.53;25.19;95101.97;4929158;28;20050;-32
2022/04/22 11:09:31;;;;;;;9.68;5.90;;;;;;;26.53;25.19;95101.97;4931308;28;20478;-28
2022/04/22 11:11:57;;;;;;;10.02;5.13;;;;;;;26.63;25.49;95082.81;4929885;28;20161;-29
2022/04/22 11:14:24;;;;;;;9.10;5.57;;;;;;;26.63;25.49;95082.81;4931677;28;20034;-32
2022/04/22 11:16:50;;;;;;;8.20;6.00;;;;;;;26.63;25.49;95082.81;4930312;28;20027;-29
2022/04/22 11:19:18;;;;;;;12.52;5.57;;;;;;;26.63;25.49;95082.81;4930464;28;20066;-29
2022/04/22 11:21:50;;;;;;;6.60;5.80;;;;;;;26.63;25.49;95082.81;4925881;28;20040;-30
2022/04/22 11:24:15;;;;;;;;;;;;;;;26.63;25.49;95082.81;4914729;28;20054;-29
2022/04/22 11:26:42;;;;;;;11.13;6.40;;;;;;;26.63;25.49;95082.81;4922464;28;19922;-29
2022/04/22 11:29:08;;;;;;;8.07;6.03;;;;;;;26.63;25.49;95082.81;4931504;28;20035;-31
2022/04/22 11:31:34;;;;;;;7.47;5.75;;;;;;;26.63;25.49;95082.81;4931844;28;20033;-30
2022/04/22 11:34:03;;;;;;;9.23;5.22;;;;;;;26.63;25.49;95082.81;4927355;28;20051;-30
2022/04/22 11:36:29;;;;;;;6.68;5.80;;;;;;;26.63;25.49;95082.81;4941711;28;20474;-29
2022/04/22 11:38:55;;;;;;;6.88;5.22;;;;;;;26.63;25.49;95082.81;4931865;28;20031;-29
2022/04/22 11:41:20;;;;;;;7.32;5.60;;;;;;;26.63;25.49;95082.81;4931443;28;20032;-30
2022/04/22 11:43:47;;;;;;;10.40;5.85;;;;;;;26.59;25.15;95084.88;4929953;28;20069;-30
2022/04/22 11:46:13;;;;;;;11.25;6.20;;;;;;;26.59;25.15;95084.88;4921471;28;20090;-33
2022/04/22 11:48:49;;;;;;;6.57;5.20;;;;;;;26.59;25.15;95084.88;4927515;28;20619;-32
2022/04/22 11:51:15;;;;;;;8.52;5.22;;;;;;;26.59;25.15;95084.88;4948266;28;20044;-30
2022/04/22 11:53:45;;;;;;;8.20;4.93;;;;;;;26.59;25.15;95084.88;4933233;28;20387;-37
2022/04/22 11:56:10;;;;;;;8.80;5.50;;;;;;;26.59;25.15;95084.88;4930462;28;20031;-31
2022/04/22 11:58:35;;;;;;;7.38;4.85;;;;;;;26.59;25.53;95067.28;4926330;28;20050;-32
2022/04/22 12:06:29;;;;;;;7.30;5.55;;;;;;;26.59;25.53;95067.28;4921031;28;20534;-31
2022/04/22 12:09:03;;;;;;;9.23;6.80;;;;;;;26.59;25.53;95067.28;4917592;28;20036;-30
2022/04/22 12:11:29;;;;;;;14.40;6.60;;;;;;;26.58;25.36;95057.75;4944347;28;20078;-28
2022/04/22 12:13:54;;;;;;;9.13;5.40;;;;;;;26.59;25.36;95064.66;4934353;28;20865;-30
2022/04/22 12:16:20;;;;;;;7.88;4.28;;;;;;;26.59;25.36;95064.66;4929063;28;20028;-28
2022/04/22 12:18:53;;;;;;;7.70;5.00;;;;;;;26.58;25.52;95063.00;4932482;28;20399;-32
2022/04/22 12:21:19;;;;;;;7.15;4.88;;;;;;;26.58;25.52;95063.00;4928942;28;20150;-29
2022/04/22 12:23:46;;;;;;;10.25;5.10;;;;;;;26.58;25.52;95063.00;4929887;28;20150;-29
2022/04/22 12:26:18;;;;;;;7.20;4.97;;;;;;;26.57;25.53;95053.47;4928371;28;20034;-29